createdAt,value
2023-04-29T00:01:05.900Z,23.40
2023-04-29T00:03:33.188Z,24.27
2023-04-29T00:06:00.619Z,23.90
2023-04-29T00:08:27.767Z,26.10
2023-04-29T00:10:54.374Z,23.80
2023-04-29T00:13:21.302Z,25.53
2023-04-29T00:15:48.108Z,21.77
2023-04-29T00:18:14.665Z,22.30
2023-04-29T00:20:41.932Z,20.90
2023-04-29T00:23:08.875Z,20.03
2023-04-29T00:25:36.049Z,20.20
2023-04-29T00:28:03.362Z,20.77
2023-04-29T00:30:30.235Z,21.40
2023-04-29T00:32:56.882Z,21.90
2023-04-29T00:35:23.574Z,21.67
2023-04-29T00:37:50.202Z,22.37
2023-04-29T00:40:17.441Z,21.77
2023-04-29T00:42:44.064Z,22.27
2023-04-29T00:45:11.585Z,22.97
2023-04-29T00:47:38.897Z,25.07
2023-04-29T00:50:07.982Z,24.57
2023-04-29T00:52:34.877Z,28.10
2023-04-29T00:55:01.686Z,29.00
2023-04-29T00:57:31.041Z,30.33
2023-04-29T00:59:58.895Z,29.10
2023-04-29T01:02:26.813Z,27.47
2023-04-29T01:04:53.597Z,30.20
2023-04-29T01:07:26.245Z,29.50
2023-04-29T01:10:11.634Z,29.70
2023-04-29T01:12:50.397Z,32.17
2023-04-29T01:15:29.259Z,31.37
2023-04-29T01:18:00.821Z,34.10
2023-04-29T01:20:28.047Z,33.03
2023-04-29T01:22:54.574Z,32.80
2023-04-29T01:25:21.105Z,29.90
2023-04-29T01:28:13.229Z,28.20
2023-04-29T01:30:49.196Z,28.50
2023-04-29T01:33:43.995Z,29.27
2023-04-29T01:36:19.635Z,28.67
2023-04-29T01:38:55.079Z,30.67
2023-04-29T01:41:33.171Z,33.50
2023-04-29T01:44:01.813Z,34.90
2023-04-29T01:46:28.758Z,33.57
2023-04-29T01:48:55.472Z,33.70
2023-04-29T01:51:22.342Z,35.33
2023-04-29T01:53:49.256Z,36.93
2023-04-29T01:56:16.136Z,36.00
2023-04-29T01:58:42.914Z,36.47
2023-04-29T02:01:10.488Z,35.87
2023-04-29T02:03:37.495Z,38.17
2023-04-29T02:06:04.454Z,36.00
2023-04-29T02:08:31.242Z,37.47
2023-04-29T02:10:59.888Z,35.50
2023-04-29T02:13:26.911Z,35.30
2023-04-29T02:15:53.480Z,37.33
2023-04-29T02:18:20.302Z,34.97
2023-04-29T02:20:46.824Z,37.30
2023-04-29T02:23:13.726Z,41.80
2023-04-29T02:25:40.294Z,42.50
2023-04-29T02:28:07.159Z,46.23
2023-04-29T02:30:33.991Z,45.60
2023-04-29T02:33:01.011Z,42.57
2023-04-29T02:35:27.769Z,42.60
2023-04-29T02:37:54.719Z,42.40
2023-04-29T02:40:21.705Z,41.50
2023-04-29T02:42:48.444Z,38.47
2023-04-29T02:45:15.170Z,39.50
2023-04-29T02:47:42.087Z,39.07
2023-04-29T02:50:09.076Z,38.67
2023-04-29T02:52:36.168Z,39.57
2023-04-29T02:55:03.162Z,39.17
2023-04-29T02:57:30.130Z,38.73
2023-04-29T02:59:57.406Z,39.13
2023-04-29T03:02:24.788Z,36.60
2023-04-29T03:04:51.441Z,34.73
2023-04-29T03:07:18.519Z,35.90
2023-04-29T03:09:45.319Z,35.40
2023-04-29T03:12:12.247Z,33.90
2023-04-29T03:14:38.832Z,31.40
2023-04-29T03:17:05.433Z,34.40
2023-04-29T03:19:32.225Z,30.20
2023-04-29T03:21:58.822Z,30.80
2023-04-29T03:24:25.462Z,32.40
2023-04-29T03:26:52.073Z,29.07
2023-04-29T03:29:18.867Z,30.30
2023-04-29T03:31:45.707Z,29.10
2023-04-29T03:34:14.563Z,28.63
2023-04-29T03:36:41.169Z,31.40
2023-04-29T03:39:07.789Z,31.77
2023-04-29T03:41:34.416Z,29.77
2023-04-29T03:44:01.230Z,30.13
2023-04-29T03:46:28.132Z,32.33
2023-04-29T03:48:57.971Z,30.13
2023-04-29T03:51:25.379Z,28.00
2023-04-29T03:53:53.035Z,27.60
2023-04-29T03:56:19.605Z,30.50
2023-04-29T03:58:46.500Z,29.03
2023-04-29T04:01:13.132Z,28.60
2023-04-29T04:03:40.074Z,28.40
2023-04-29T04:06:06.709Z,27.90
2023-04-29T04:08:33.240Z,28.63
2023-04-29T04:11:03.132Z,29.50
2023-04-29T04:13:30.028Z,27.10
2023-04-29T04:15:56.884Z,30.30
2023-04-29T04:18:23.848Z,31.10
2023-04-29T04:20:50.465Z,30.70
2023-04-29T04:23:17.979Z,29.40
2023-04-29T04:25:48.546Z,30.33
2023-04-29T04:28:15.827Z,30.53
2023-04-29T04:30:42.984Z,30.70
2023-04-29T04:33:10.706Z,30.53
2023-04-29T04:35:37.211Z,30.20
2023-04-29T04:38:04.349Z,32.10
2023-04-29T04:40:30.872Z,32.83
2023-04-29T04:42:57.433Z,31.70
2023-04-29T04:45:24.289Z,33.10
2023-04-29T04:47:51.059Z,29.47
2023-04-29T04:50:17.733Z,32.00
2023-04-29T04:52:44.324Z,29.93
2023-04-29T04:55:12.276Z,31.90
2023-04-29T04:57:40.373Z,30.67
2023-04-29T05:00:07.513Z,31.87
2023-04-29T05:02:34.298Z,30.57
2023-04-29T05:05:01.292Z,31.77
2023-04-29T05:07:27.813Z,30.50
2023-04-29T05:09:54.639Z,29.53
2023-04-29T05:12:21.559Z,31.57
2023-04-29T05:14:48.077Z,29.67
2023-04-29T05:17:14.586Z,30.00
2023-04-29T05:19:41.273Z,31.60
2023-04-29T05:22:08.011Z,29.70
2023-04-29T05:24:34.605Z,31.97
2023-04-29T05:27:01.100Z,30.60
2023-04-29T05:29:28.048Z,31.80
2023-04-29T05:31:54.517Z,30.40
2023-04-29T05:34:21.111Z,28.37
2023-04-29T05:36:48.083Z,29.63
2023-04-29T05:39:14.915Z,30.30
2023-04-29T05:41:41.700Z,29.77
2023-04-29T05:44:08.278Z,28.40
2023-04-29T05:46:35.094Z,29.30
2023-04-29T05:49:01.765Z,30.50
2023-04-29T05:51:28.535Z,30.50
2023-04-29T05:53:55.158Z,28.10
2023-04-29T05:56:22.448Z,27.83
2023-04-29T05:58:49.025Z,29.10
2023-04-29T06:01:17.375Z,28.20
2023-04-29T06:03:44.105Z,29.50
2023-04-29T06:06:11.310Z,28.00
2023-04-29T06:08:38.021Z,30.07
2023-04-29T06:11:05.377Z,26.97
2023-04-29T06:13:32.766Z,27.07
2023-04-29T06:15:59.249Z,28.43
2023-04-29T06:18:25.776Z,27.50
2023-04-29T06:20:52.459Z,29.23
2023-04-29T06:23:18.930Z,28.40
2023-04-29T06:25:45.424Z,29.00
2023-04-29T06:28:12.122Z,29.17
2023-04-29T06:30:38.600Z,28.27
2023-04-29T06:33:06.052Z,26.90
2023-04-29T06:35:32.660Z,29.30
2023-04-29T06:37:59.131Z,29.50
2023-04-29T06:40:26.070Z,27.67
2023-04-29T06:42:52.616Z,30.83
2023-04-29T06:45:19.173Z,29.73
2023-04-29T06:47:46.919Z,30.60
2023-04-29T06:50:13.646Z,28.93
2023-04-29T06:52:40.298Z,29.90
2023-04-29T06:55:07.218Z,28.40
2023-04-29T06:57:33.831Z,31.40
2023-04-29T07:00:00.886Z,31.07
2023-04-29T07:02:27.571Z,31.07
2023-04-29T07:04:54.417Z,31.40
2023-04-29T07:07:21.047Z,30.03
2023-04-29T07:09:48.654Z,30.20
2023-04-29T07:12:15.203Z,31.03
2023-04-29T07:14:41.968Z,31.30
2023-04-29T07:17:08.593Z,31.63
2023-04-29T07:19:35.936Z,30.00
2023-04-29T07:22:02.972Z,30.10
2023-04-29T07:24:29.674Z,32.83
2023-04-29T07:26:56.246Z,30.43
2023-04-29T07:29:22.827Z,29.10
2023-04-29T07:31:49.574Z,28.50
2023-04-29T07:34:16.209Z,29.23
2023-04-29T07:36:42.813Z,30.10
2023-04-29T07:39:09.785Z,27.77
2023-04-29T07:41:36.453Z,27.10
2023-04-29T07:44:04.108Z,28.77
2023-04-29T07:46:31.410Z,26.57
2023-04-29T07:48:58.434Z,28.20
2023-04-29T07:51:25.173Z,26.90
2023-04-29T07:53:52.038Z,24.90
2023-04-29T07:56:21.332Z,27.70
2023-04-29T07:58:47.968Z,27.57
2023-04-29T08:01:15.544Z,27.50
2023-04-29T08:03:42.577Z,29.47
2023-04-29T08:06:09.516Z,27.67
2023-04-29T08:08:37.541Z,32.03
2023-04-29T08:11:04.707Z,29.83
2023-04-29T08:13:31.546Z,31.50
2023-04-29T08:15:58.183Z,29.60
2023-04-29T08:18:25.197Z,33.07
2023-04-29T08:20:51.833Z,33.10
2023-04-29T08:23:18.714Z,34.10
2023-04-29T08:25:45.912Z,35.10
2023-04-29T08:28:13.229Z,35.80
2023-04-29T08:30:41.042Z,35.50
2023-04-29T08:33:08.510Z,37.87
2023-04-29T08:35:39.089Z,36.47
2023-04-29T08:38:06.828Z,35.67
2023-04-29T08:40:41.693Z,36.53
2023-04-29T08:43:10.239Z,38.67
2023-04-29T08:45:37.184Z,36.90
2023-04-29T08:48:04.320Z,36.33
2023-04-29T08:50:31.878Z,38.20
2023-04-29T08:52:59.277Z,39.83
2023-04-29T08:55:26.275Z,39.33
2023-04-29T08:57:55.121Z,38.10
2023-04-29T09:00:22.603Z,37.47
2023-04-29T09:02:54.051Z,38.23
2023-04-29T09:05:21.886Z,36.63
2023-04-29T09:07:48.801Z,39.80
2023-04-29T09:10:16.391Z,38.20
2023-04-29T09:12:43.062Z,37.13
2023-04-29T09:15:10.334Z,37.83
2023-04-29T09:17:44.472Z,38.37
2023-04-29T09:20:20.438Z,39.10
2023-04-29T09:22:51.058Z,37.90
2023-04-29T09:25:17.846Z,37.07
2023-04-29T09:27:44.923Z,37.93
2023-04-29T09:30:13.875Z,36.77
2023-04-29T09:32:41.071Z,34.83
2023-04-29T09:35:27.584Z,33.23
2023-04-29T09:38:08.987Z,31.93
2023-04-29T09:40:50.256Z,29.53
2023-04-29T09:43:24.649Z,30.30
2023-04-29T09:45:51.748Z,28.87
2023-04-29T09:48:18.680Z,27.67
2023-04-29T09:50:59.706Z,27.23
2023-04-29T09:53:31.179Z,28.93
2023-04-29T09:56:02.265Z,28.87
2023-04-29T09:58:31.182Z,30.10
2023-04-29T10:01:01.029Z,28.60
2023-04-29T10:03:34.620Z,28.07
2023-04-29T10:06:02.856Z,27.13
2023-04-29T10:08:30.181Z,27.87
2023-04-29T10:11:01.948Z,28.90
2023-04-29T10:13:29.037Z,26.47
2023-04-29T10:16:08.004Z,28.10
2023-04-29T10:18:41.696Z,26.33
2023-04-29T10:21:11.841Z,26.93
2023-04-29T10:23:39.373Z,26.47
2023-04-29T10:26:07.138Z,25.13
2023-04-29T10:28:33.753Z,26.40
2023-04-29T10:31:04.754Z,26.00
2023-04-29T10:33:35.303Z,25.70
2023-04-29T10:36:03.308Z,24.27
2023-04-29T10:38:35.846Z,23.23
2023-04-29T10:41:04.547Z,22.93
2023-04-29T10:43:32.005Z,24.00
2023-04-29T10:46:26.880Z,22.20
2023-04-29T10:48:59.580Z,22.43
2023-04-29T10:51:33.030Z,22.60
2023-04-29T10:54:02.122Z,22.33
2023-04-29T10:56:37.976Z,23.00
2023-04-29T10:59:04.944Z,20.83
2023-04-29T11:01:52.414Z,19.97
2023-04-29T11:04:22.729Z,19.60
2023-04-29T11:06:58.197Z,20.77
2023-04-29T11:09:27.136Z,21.80
2023-04-29T11:11:58.426Z,21.50
2023-04-29T11:14:26.821Z,22.53
2023-04-29T11:16:57.906Z,23.67
2023-04-29T11:19:29.273Z,21.60
2023-04-29T11:22:19.158Z,21.37
2023-04-29T11:25:02.091Z,19.37
2023-04-29T11:27:39.957Z,21.60
2023-04-29T11:30:07.764Z,21.80
2023-04-29T11:32:36.435Z,20.67
2023-04-29T11:35:10.116Z,20.23
2023-04-29T11:37:37.387Z,19.40
2023-04-29T11:40:05.471Z,19.80
2023-04-29T11:42:36.012Z,17.30
2023-04-29T11:45:02.744Z,19.73
2023-04-29T11:47:30.536Z,18.93
2023-04-29T11:50:04.987Z,18.20
2023-04-29T11:52:32.252Z,17.77
2023-04-29T11:55:00.201Z,17.73
2023-04-29T11:57:26.943Z,18.73
2023-04-29T11:59:53.815Z,19.03
2023-04-29T12:02:23.969Z,19.43
2023-04-29T12:04:51.736Z,19.30
2023-04-29T12:07:18.675Z,18.40
2023-04-29T12:09:49.121Z,18.87
2023-04-29T12:12:16.004Z,19.60
2023-04-29T12:14:43.237Z,18.60
2023-04-29T12:17:10.421Z,20.07
2023-04-29T12:19:39.182Z,17.93
2023-04-29T12:22:08.065Z,18.70
2023-04-29T12:24:39.786Z,18.20
2023-04-29T12:27:10.326Z,17.27
2023-04-29T12:29:37.672Z,18.13
2023-04-29T12:32:04.518Z,16.97
2023-04-29T12:34:32.385Z,18.73
2023-04-29T12:37:00.234Z,18.80
2023-04-29T12:39:27.681Z,21.43
2023-04-29T12:42:01.871Z,18.97
2023-04-29T12:44:36.557Z,18.80
2023-04-29T12:47:08.984Z,19.80
2023-04-29T12:49:37.180Z,17.90
2023-04-29T12:52:04.394Z,19.87
2023-04-29T12:54:31.123Z,18.70
2023-04-29T12:56:57.720Z,18.90
2023-04-29T12:59:24.351Z,19.50
2023-04-29T13:01:51.342Z,19.03
2023-04-29T13:04:18.044Z,19.13
2023-04-29T13:06:44.694Z,18.23
2023-04-29T13:09:17.479Z,19.50
2023-04-29T13:11:45.265Z,18.53
2023-04-29T13:14:12.161Z,20.20
2023-04-29T13:16:39.081Z,17.80
2023-04-29T13:19:18.027Z,20.47
2023-04-29T13:21:53.056Z,20.07
2023-04-29T13:24:20.929Z,19.20
2023-04-29T13:26:50.339Z,20.13
2023-04-29T13:29:18.869Z,20.47
2023-04-29T13:31:47.533Z,19.53
2023-04-29T13:34:14.327Z,19.70
2023-04-29T13:36:40.986Z,19.00
2023-04-29T13:39:07.815Z,17.63
2023-04-29T13:41:35.571Z,19.47
2023-04-29T13:44:03.020Z,19.43
2023-04-29T13:46:32.564Z,17.90
2023-04-29T13:54:49.290Z,20.40
2023-04-29T13:59:41.687Z,20.90
2023-04-29T14:04:31.572Z,17.50
2023-04-29T14:06:58.332Z,18.50
2023-04-29T14:09:25.064Z,18.83
2023-04-29T14:11:51.752Z,19.37
2023-04-29T14:14:18.481Z,19.33
2023-04-29T14:16:45.270Z,18.43
2023-04-29T14:19:11.994Z,18.87
2023-04-29T14:21:39.118Z,19.27
2023-04-29T14:24:05.883Z,18.63
2023-04-29T14:26:32.522Z,17.43
2023-04-29T14:29:00.141Z,18.10
2023-04-29T14:31:31.684Z,19.67
2023-04-29T14:33:58.577Z,19.23
2023-04-29T14:36:26.683Z,19.13
2023-04-29T14:38:53.404Z,17.40
2023-04-29T14:41:21.616Z,17.77
2023-04-29T14:43:48.345Z,18.40
2023-04-29T14:46:15.070Z,19.13
2023-04-29T14:48:41.746Z,18.10
2023-04-29T14:51:08.909Z,15.23
2023-04-29T14:53:36.613Z,16.50
2023-04-29T14:56:03.743Z,15.90
2023-04-29T14:58:30.915Z,14.20
2023-04-29T15:00:57.758Z,14.87
2023-04-29T15:03:24.889Z,14.33
2023-04-29T15:05:51.831Z,14.40
2023-04-29T15:08:19.383Z,14.50
2023-04-29T15:10:47.572Z,14.20
2023-04-29T15:13:14.995Z,13.53
2023-04-29T15:15:41.935Z,13.37
2023-04-29T15:18:09.159Z,13.07
2023-04-29T15:20:37.014Z,12.23
2023-04-29T15:23:05.492Z,13.00
2023-04-29T15:25:36.285Z,12.20
2023-04-29T15:28:05.124Z,11.13
2023-04-29T15:30:32.336Z,12.20
2023-04-29T15:32:59.297Z,11.53
2023-04-29T15:35:27.045Z,12.00
2023-04-29T15:37:54.050Z,11.73
2023-04-29T15:40:20.654Z,11.93
2023-04-29T15:42:47.712Z,12.30
2023-04-29T15:45:14.264Z,12.57
2023-04-29T15:47:40.942Z,12.40
2023-04-29T15:50:09.593Z,13.53
2023-04-29T15:52:36.900Z,12.00
2023-04-29T15:55:04.975Z,12.20
2023-04-29T15:57:31.634Z,12.53
2023-04-29T15:59:58.336Z,12.70
2023-04-29T16:02:25.285Z,12.53
2023-04-29T16:04:51.852Z,13.20
2023-04-29T16:07:18.435Z,12.40
2023-04-29T16:09:45.036Z,13.43
2023-04-29T16:12:13.084Z,13.20
2023-04-29T16:14:39.728Z,12.27
2023-04-29T16:17:06.778Z,13.00
2023-04-29T16:19:35.982Z,11.83
2023-04-29T16:22:03.778Z,15.80
2023-04-29T16:24:30.363Z,11.57
2023-04-29T16:26:58.887Z,12.97
2023-04-29T16:29:25.769Z,13.80
2023-04-29T16:31:52.954Z,13.30
2023-04-29T16:34:20.062Z,12.33
2023-04-29T16:36:47.008Z,12.40
2023-04-29T16:39:13.801Z,12.57
2023-04-29T16:41:41.294Z,12.50
2023-04-29T16:44:08.054Z,12.30
2023-04-29T16:46:35.326Z,12.97
2023-04-29T16:49:02.115Z,11.67
2023-04-29T16:51:29.200Z,11.30
2023-04-29T16:53:55.789Z,12.63
2023-04-29T16:56:22.606Z,12.33
2023-04-29T16:58:49.209Z,11.67
2023-04-29T17:01:16.435Z,12.23
2023-04-29T17:03:43.138Z,11.57
2023-04-29T17:06:09.829Z,12.57
2023-04-29T17:08:36.720Z,12.10
2023-04-29T17:11:04.771Z,11.73
2023-04-29T17:13:31.670Z,12.93
2023-04-29T17:15:58.390Z,12.87
2023-04-29T17:18:25.080Z,12.40
2023-04-29T17:20:51.654Z,10.73
2023-04-29T17:23:18.363Z,11.10
2023-04-29T17:25:45.129Z,11.67
2023-04-29T17:28:11.929Z,13.63
2023-04-29T17:30:38.694Z,12.23
2023-04-29T17:33:05.973Z,11.70
2023-04-29T17:35:33.714Z,11.60
2023-04-29T17:38:00.414Z,12.13
2023-04-29T17:40:27.540Z,12.53
2023-04-29T17:42:54.111Z,12.50
2023-04-29T17:45:20.743Z,12.70
2023-04-29T17:47:48.414Z,12.33
2023-04-29T17:50:15.393Z,12.67
2023-04-29T17:52:42.748Z,13.90
2023-04-29T17:55:10.109Z,13.30
2023-04-29T17:57:38.076Z,12.83
2023-04-29T18:00:07.307Z,13.10
2023-04-29T18:02:34.638Z,12.43
2023-04-29T18:05:03.529Z,13.37
2023-04-29T18:07:30.155Z,12.80
2023-04-29T18:09:57.043Z,14.80
2023-04-29T18:12:24.971Z,14.30
2023-04-29T18:14:51.975Z,13.40
2023-04-29T18:17:19.021Z,14.53
2023-04-29T18:19:49.658Z,13.60
2023-04-29T18:22:16.847Z,13.90
2023-04-29T18:24:43.699Z,14.70
2023-04-29T18:27:10.456Z,14.40
2023-04-29T18:29:37.950Z,13.40
2023-04-29T18:32:07.819Z,13.67
2023-04-29T18:34:34.966Z,13.13
2023-04-29T18:37:01.664Z,13.70
2023-04-29T18:39:28.445Z,13.57
2023-04-29T18:41:55.324Z,15.23
2023-04-29T18:44:21.992Z,15.30
2023-04-29T18:46:48.562Z,18.07
2023-04-29T18:49:18.104Z,20.40
2023-04-29T18:51:46.754Z,19.53
2023-04-29T18:54:15.234Z,16.27
2023-04-29T18:56:46.261Z,14.77
2023-04-29T18:59:15.798Z,14.80
2023-04-29T19:01:43.217Z,15.67
2023-04-29T19:04:10.266Z,14.80
2023-04-29T19:06:37.736Z,13.90
2023-04-29T19:09:05.489Z,14.83
2023-04-29T19:11:32.660Z,16.63
2023-04-29T19:13:59.262Z,16.73
2023-04-29T19:16:26.201Z,19.60
2023-04-29T19:18:53.614Z,17.43
2023-04-29T19:21:20.648Z,17.80
2023-04-29T19:23:47.767Z,19.50
2023-04-29T19:26:14.448Z,17.63
2023-04-29T19:28:41.147Z,17.47
2023-04-29T19:31:07.764Z,19.47
2023-04-29T19:33:34.633Z,16.97
2023-04-29T19:36:01.347Z,16.70
2023-04-29T19:38:28.035Z,17.67
2023-04-29T19:40:56.034Z,18.33
2023-04-29T19:43:23.106Z,17.90
2023-04-29T19:45:51.666Z,18.80
2023-04-29T19:48:18.222Z,19.63
2023-04-29T19:50:44.851Z,20.00
2023-04-29T19:53:11.743Z,18.43
2023-04-29T19:55:41.191Z,15.40
2023-04-29T19:58:07.967Z,15.20
2023-04-29T20:00:35.294Z,13.60
2023-04-29T20:03:02.759Z,13.83
2023-04-29T20:05:29.785Z,15.47
2023-04-29T20:07:56.375Z,14.13
2023-04-29T20:10:23.085Z,14.40
2023-04-29T20:12:50.523Z,14.10
2023-04-29T20:15:17.200Z,14.33
2023-04-29T20:17:44.141Z,15.03
2023-04-29T20:20:11.170Z,15.87
2023-04-29T20:22:38.491Z,16.40
2023-04-29T20:25:05.591Z,13.50
2023-04-29T20:27:32.351Z,15.07
2023-04-29T20:29:59.061Z,15.13
2023-04-29T20:32:26.822Z,14.20
2023-04-29T20:34:56.915Z,14.97
2023-04-29T20:37:23.602Z,14.20
2023-04-29T20:39:50.837Z,14.50
2023-04-29T20:42:17.556Z,14.60
2023-04-29T20:44:44.433Z,13.63
2023-04-29T20:47:11.050Z,14.70
2023-04-29T20:49:39.444Z,15.13
2023-04-29T20:52:08.959Z,15.47
2023-04-29T20:54:36.927Z,13.97
2023-04-29T20:57:05.570Z,15.40
2023-04-29T20:59:33.598Z,14.70
2023-04-29T21:02:00.242Z,14.47
2023-04-29T21:04:27.113Z,12.87
2023-04-29T21:06:53.760Z,13.67
2023-04-29T21:09:21.447Z,12.30
2023-04-29T21:11:48.376Z,14.00
2023-04-29T21:14:14.986Z,13.00
2023-04-29T21:16:42.407Z,11.20
2023-04-29T21:19:08.960Z,11.13
2023-04-29T21:21:35.610Z,13.10
2023-04-29T21:24:02.197Z,10.30
2023-04-29T21:26:29.101Z,10.50
2023-04-29T21:28:55.997Z,10.80
2023-04-29T21:31:24.309Z,10.17
2023-04-29T21:33:50.968Z,10.63
2023-04-29T21:36:17.649Z,9.93
2023-04-29T21:38:44.335Z,10.77
2023-04-29T21:41:28.222Z,10.97
2023-04-29T21:43:57.567Z,10.00
2023-04-29T21:46:25.201Z,10.50
2023-04-29T21:48:51.954Z,10.30
2023-04-29T21:51:22.963Z,11.40
2023-04-29T21:53:50.764Z,9.90
2023-04-29T21:56:17.420Z,10.13
2023-04-29T21:58:44.805Z,8.90
2023-04-29T22:01:39.344Z,8.80
2023-04-29T22:04:06.335Z,8.83
2023-04-29T22:06:34.505Z,9.00
2023-04-29T22:09:01.540Z,8.63
2023-04-29T22:11:28.608Z,9.20
2023-04-29T22:13:56.325Z,8.43
2023-04-29T22:16:23.564Z,8.67
2023-04-29T22:18:50.818Z,8.33
2023-04-29T22:21:17.993Z,9.10
2023-04-29T22:23:44.728Z,9.70
2023-04-29T22:26:11.362Z,8.70
2023-04-29T22:28:37.883Z,8.47
2023-04-29T22:31:04.623Z,7.83
2023-04-29T22:33:31.549Z,7.83
2023-04-29T22:35:58.203Z,8.57
2023-04-29T22:38:24.863Z,7.40
2023-04-29T22:40:52.250Z,8.63
2023-04-29T22:43:18.896Z,7.97
2023-04-29T22:45:55.399Z,8.23
2023-04-29T22:48:24.171Z,6.50
2023-04-29T22:50:53.739Z,7.63
2023-04-29T22:53:21.180Z,7.83
2023-04-29T22:55:55.204Z,7.77
2023-04-29T22:58:22.502Z,7.50
2023-04-29T23:00:57.032Z,8.10
2023-04-29T23:03:24.059Z,6.83
2023-04-29T23:05:51.568Z,7.80
2023-04-29T23:08:18.492Z,8.80
2023-04-29T23:10:49.515Z,7.23
2023-04-29T23:13:19.208Z,7.80
2023-04-29T23:15:45.980Z,7.20
2023-04-29T23:18:13.036Z,7.10
2023-04-29T23:20:39.724Z,8.10
2023-04-29T23:23:08.395Z,7.80
2023-04-29T23:25:35.002Z,7.30
2023-04-29T23:28:01.870Z,8.10
2023-04-29T23:30:28.507Z,8.23
2023-04-29T23:32:55.474Z,8.37
2023-04-29T23:35:22.321Z,8.00
2023-04-29T23:37:49.007Z,7.20
2023-04-29T23:40:16.056Z,7.23
2023-04-29T23:42:42.641Z,7.33
2023-04-29T23:45:09.461Z,7.60
2023-04-29T23:47:36.059Z,7.40
2023-04-29T23:50:04.022Z,8.67
2023-04-29T23:52:30.671Z,7.50
2023-04-29T23:54:57.564Z,7.50
2023-04-29T23:57:24.187Z,7.63
2023-04-29T23:59:50.850Z,8.50
